sensor_id;sensor_type;location;lat;lon;timestamp;temperature;humidity
20045;DHT22;10183;47.808;9.476;2022-07-05T00:01:18;15.50;99.90
20045;DHT22;10183;47.808;9.476;2022-07-05T00:03:45;15.60;99.90
20045;DHT22;10183;47.808;9.476;2022-07-05T00:06:11;15.60;99.90
20045;DHT22;10183;47.808;9.476;2022-07-05T00:08:38;15.70;99.90
20045;DHT22;10183;47.808;9.476;2022-07-05T00:11:05;15.40;99.90
20045;DHT22;10183;47.808;9.476;2022-07-05T00:13:31;15.50;99.90
20045;DHT22;10183;47.808;9.476;2022-07-05T00:15:58;15.60;99.90
20045;DHT22;10183;47.808;9.476;2022-07-05T00:18:24;15.70;99.90
20045;DHT22;10183;47.808;9.476;2022-07-05T00:20:50;15.60;99.90
20045;DHT22;10183;47.808;9.476;2022-07-05T00:23:16;15.60;99.90
20045;DHT22;10183;47.808;9.476;2022-07-05T00:25:42;15.60;99.90
20045;DHT22;10183;47.808;9.476;2022-07-05T00:28:08;15.70;99.90
20045;DHT22;10183;47.808;9.476;2022-07-05T00:30:36;15.80;99.90
20045;DHT22;10183;47.808;9.476;2022-07-05T00:33:03;15.70;99.90
20045;DHT22;10183;47.808;9.476;2022-07-05T00:35:29;15.80;99.90
20045;DHT22;10183;47.808;9.476;2022-07-05T00:37:55;15.60;99.90
20045;DHT22;10183;47.808;9.476;2022-07-05T00:40:21;15.40;99.90
20045;DHT22;10183;47.808;9.476;2022-07-05T00:42:47;15.40;99.90
20045;DHT22;10183;47.808;9.476;2022-07-05T00:45:14;15.30;99.90
20045;DHT22;10183;47.808;9.476;2022-07-05T00:47:40;15.40;99.90
20045;DHT22;10183;47.808;9.476;2022-07-05T00:50:06;15.40;99.90
20045;DHT22;10183;47.808;9.476;2022-07-05T00:52:33;15.50;99.90
20045;DHT22;10183;47.808;9.476;2022-07-05T00:54:59;15.50;99.90
20045;DHT22;10183;47.808;9.476;2022-07-05T00:57:26;15.40;99.90
20045;DHT22;10183;47.808;9.476;2022-07-05T00:59:52;15.30;99.90
20045;DHT22;10183;47.808;9.476;2022-07-05T01:02:18;15.20;99.90
20045;DHT22;10183;47.808;9.476;2022-07-05T01:04:50;15.20;99.90
20045;DHT22;10183;47.808;9.476;2022-07-05T01:07:20;15.30;99.90
20045;DHT22;10183;47.808;9.476;2022-07-05T01:09:47;15.40;99.90
20045;DHT22;10183;47.808;9.476;2022-07-05T01:12:15;15.40;99.90
20045;DHT22;10183;47.808;9.476;2022-07-05T01:14:42;15.40;99.90
20045;DHT22;10183;47.808;9.476;2022-07-05T01:17:08;15.30;99.90
20045;DHT22;10183;47.808;9.476;2022-07-05T01:19:35;15.20;99.90
20045;DHT22;10183;47.808;9.476;2022-07-05T01:22:02;15.30;99.90
20045;DHT22;10183;47.808;9.476;2022-07-05T01:24:33;15.50;99.90
20045;DHT22;10183;47.808;9.476;2022-07-05T01:26:59;15.50;99.90
20045;DHT22;10183;47.808;9.476;2022-07-05T01:29:26;15.60;99.90
20045;DHT22;10183;47.808;9.476;2022-07-05T01:31:52;15.70;99.90
20045;DHT22;10183;47.808;9.476;2022-07-05T01:34:18;15.70;99.90
20045;DHT22;10183;47.808;9.476;2022-07-05T01:36:45;15.70;99.90
20045;DHT22;10183;47.808;9.476;2022-07-05T01:39:11;15.70;99.90
20045;DHT22;10183;47.808;9.476;2022-07-05T01:41:37;15.70;99.90
20045;DHT22;10183;47.808;9.476;2022-07-05T01:44:04;15.80;99.90
20045;DHT22;10183;47.808;9.476;2022-07-05T01:46:32;15.80;99.90
20045;DHT22;10183;47.808;9.476;2022-07-05T01:49:05;15.70;99.90
20045;DHT22;10183;47.808;9.476;2022-07-05T01:51:41;15.50;99.90
20045;DHT22;10183;47.808;9.476;2022-07-05T01:54:07;15.40;99.90
20045;DHT22;10183;47.808;9.476;2022-07-05T01:56:34;15.30;99.90
20045;DHT22;10183;47.808;9.476;2022-07-05T01:59:02;15.30;99.90
20045;DHT22;10183;47.808;9.476;2022-07-05T02:01:33;15.30;99.90
20045;DHT22;10183;47.808;9.476;2022-07-05T02:03:59;15.40;99.90
20045;DHT22;10183;47.808;9.476;2022-07-05T02:06:25;15.40;99.90
20045;DHT22;10183;47.808;9.476;2022-07-05T02:08:51;15.40;99.90
20045;DHT22;10183;47.808;9.476;2022-07-05T02:11:17;15.40;99.90
20045;DHT22;10183;47.808;9.476;2022-07-05T02:13:43;15.50;99.90
20045;DHT22;10183;47.808;9.476;2022-07-05T02:16:10;15.40;99.90
20045;DHT22;10183;47.808;9.476;2022-07-05T02:18:36;15.40;99.90
20045;DHT22;10183;47.808;9.476;2022-07-05T02:21:02;15.40;99.90
20045;DHT22;10183;47.808;9.476;2022-07-05T02:23:29;15.40;99.90
20045;DHT22;10183;47.808;9.476;2022-07-05T02:25:55;15.50;99.90
20045;DHT22;10183;47.808;9.476;2022-07-05T02:28:21;15.60;99.90
20045;DHT22;10183;47.808;9.476;2022-07-05T02:30:47;15.70;99.90
20045;DHT22;10183;47.808;9.476;2022-07-05T02:33:14;15.70;99.90
20045;DHT22;10183;47.808;9.476;2022-07-05T02:35:40;15.70;99.90
20045;DHT22;10183;47.808;9.476;2022-07-05T02:38:06;15.80;99.90
20045;DHT22;10183;47.808;9.476;2022-07-05T02:40:32;15.80;99.90
20045;DHT22;10183;47.808;9.476;2022-07-05T02:42:58;15.70;99.90
20045;DHT22;10183;47.808;9.476;2022-07-05T02:45:25;15.60;99.90
20045;DHT22;10183;47.808;9.476;2022-07-05T02:47:51;15.60;99.90
20045;DHT22;10183;47.808;9.476;2022-07-05T02:50:17;15.70;99.90
20045;DHT22;10183;47.808;9.476;2022-07-05T02:52:43;15.70;99.90
20045;DHT22;10183;47.808;9.476;2022-07-05T02:55:09;15.80;99.90
20045;DHT22;10183;47.808;9.476;2022-07-05T02:57:38;15.80;99.90
20045;DHT22;10183;47.808;9.476;2022-07-05T03:00:05;15.70;99.90
20045;DHT22;10183;47.808;9.476;2022-07-05T03:02:31;15.70;99.90
20045;DHT22;10183;47.808;9.476;2022-07-05T03:04:58;15.70;99.90
20045;DHT22;10183;47.808;9.476;2022-07-05T03:07:24;15.70;99.90
20045;DHT22;10183;47.808;9.476;2022-07-05T03:09:50;15.70;99.90
20045;DHT22;10183;47.808;9.476;2022-07-05T03:12:16;15.60;99.90
20045;DHT22;10183;47.808;9.476;2022-07-05T03:14:42;15.60;99.90
20045;DHT22;10183;47.808;9.476;2022-07-05T03:17:09;15.60;99.90
20045;DHT22;10183;47.808;9.476;2022-07-05T03:19:35;15.50;99.90
20045;DHT22;10183;47.808;9.476;2022-07-05T03:22:02;15.60;99.90
20045;DHT22;10183;47.808;9.476;2022-07-05T03:24:28;15.70;99.90
20045;DHT22;10183;47.808;9.476;2022-07-05T03:26:54;15.80;99.90
20045;DHT22;10183;47.808;9.476;2022-07-05T03:29:20;15.80;99.90
20045;DHT22;10183;47.808;9.476;2022-07-05T03:31:46;15.90;99.90
20045;DHT22;10183;47.808;9.476;2022-07-05T03:34:12;15.90;99.90
20045;DHT22;10183;47.808;9.476;2022-07-05T03:36:39;15.60;99.90
20045;DHT22;10183;47.808;9.476;2022-07-05T03:39:05;15.50;99.90
20045;DHT22;10183;47.808;9.476;2022-07-05T03:41:31;15.40;99.90
20045;DHT22;10183;47.808;9.476;2022-07-05T03:43:57;15.40;99.90
20045;DHT22;10183;47.808;9.476;2022-07-05T03:46:23;15.40;99.90
20045;DHT22;10183;47.808;9.476;2022-07-05T03:48:49;15.40;99.90
20045;DHT22;10183;47.808;9.476;2022-07-05T03:51:16;15.40;99.90
20045;DHT22;10183;47.808;9.476;2022-07-05T03:53:42;15.50;99.90
20045;DHT22;10183;47.808;9.476;2022-07-05T03:56:08;15.50;99.90
20045;DHT22;10183;47.808;9.476;2022-07-05T03:58:34;15.40;99.90
20045;DHT22;10183;47.808;9.476;2022-07-05T04:01:00;15.30;99.90
20045;DHT22;10183;47.808;9.476;2022-07-05T04:03:27;15.20;99.90
20045;DHT22;10183;47.808;9.476;2022-07-05T04:05:53;15.30;99.90
20045;DHT22;10183;47.808;9.476;2022-07-05T04:08:19;15.20;99.90
20045;DHT22;10183;47.808;9.476;2022-07-05T04:10:45;15.20;99.90
20045;DHT22;10183;47.808;9.476;2022-07-05T04:13:11;15.30;99.90
20045;DHT22;10183;47.808;9.476;2022-07-05T04:15:37;15.40;99.90
20045;DHT22;10183;47.808;9.476;2022-07-05T04:18:04;15.50;99.90
20045;DHT22;10183;47.808;9.476;2022-07-05T04:20:31;15.50;99.90
20045;DHT22;10183;47.808;9.476;2022-07-05T04:22:57;15.60;99.90
20045;DHT22;10183;47.808;9.476;2022-07-05T04:25:23;15.70;99.90
20045;DHT22;10183;47.808;9.476;2022-07-05T04:27:51;15.60;99.90
20045;DHT22;10183;47.808;9.476;2022-07-05T04:30:21;15.50;99.90
20045;DHT22;10183;47.808;9.476;2022-07-05T04:32:48;15.60;99.90
20045;DHT22;10183;47.808;9.476;2022-07-05T04:35:14;15.70;99.90
20045;DHT22;10183;47.808;9.476;2022-07-05T04:37:41;15.80;99.90
20045;DHT22;10183;47.808;9.476;2022-07-05T04:40:10;15.90;99.90
20045;DHT22;10183;47.808;9.476;2022-07-05T04:42:37;15.80;99.90
20045;DHT22;10183;47.808;9.476;2022-07-05T04:45:04;15.80;99.90
20045;DHT22;10183;47.808;9.476;2022-07-05T04:47:31;15.90;99.90
20045;DHT22;10183;47.808;9.476;2022-07-05T04:49:57;16.00;99.90
20045;DHT22;10183;47.808;9.476;2022-07-05T04:52:24;16.00;99.90
20045;DHT22;10183;47.808;9.476;2022-07-05T04:54:50;16.10;99.90
20045;DHT22;10183;47.808;9.476;2022-07-05T04:57:16;16.10;99.90
20045;DHT22;10183;47.808;9.476;2022-07-05T04:59:43;15.80;99.90
20045;DHT22;10183;47.808;9.476;2022-07-05T05:02:09;15.60;99.90
20045;DHT22;10183;47.808;9.476;2022-07-05T05:04:35;15.50;99.90
20045;DHT22;10183;47.808;9.476;2022-07-05T05:07:01;15.50;99.90
20045;DHT22;10183;47.808;9.476;2022-07-05T05:09:28;15.50;99.90
20045;DHT22;10183;47.808;9.476;2022-07-05T05:11:54;15.60;99.90
20045;DHT22;10183;47.808;9.476;2022-07-05T05:14:20;15.70;99.90
20045;DHT22;10183;47.808;9.476;2022-07-05T05:16:47;15.70;99.90
20045;DHT22;10183;47.808;9.476;2022-07-05T05:19:13;15.80;99.90
20045;DHT22;10183;47.808;9.476;2022-07-05T05:21:39;15.80;99.90
20045;DHT22;10183;47.808;9.476;2022-07-05T05:24:06;15.80;99.90
20045;DHT22;10183;47.808;9.476;2022-07-05T05:26:32;15.90;99.90
20045;DHT22;10183;47.808;9.476;2022-07-05T05:28:58;15.90;99.90
20045;DHT22;10183;47.808;9.476;2022-07-05T05:31:25;16.00;99.90
20045;DHT22;10183;47.808;9.476;2022-07-05T05:33:51;16.00;99.90
20045;DHT22;10183;47.808;9.476;2022-07-05T05:36:17;16.00;99.90
20045;DHT22;10183;47.808;9.476;2022-07-05T05:38:43;16.10;99.90
20045;DHT22;10183;47.808;9.476;2022-07-05T05:41:09;16.20;99.90
20045;DHT22;10183;47.808;9.476;2022-07-05T05:43:35;16.40;99.90
20045;DHT22;10183;47.808;9.476;2022-07-05T05:46:03;16.40;99.90
20045;DHT22;10183;47.808;9.476;2022-07-05T05:48:29;16.10;99.90
20045;DHT22;10183;47.808;9.476;2022-07-05T05:50:55;16.00;99.90
20045;DHT22;10183;47.808;9.476;2022-07-05T05:53:22;16.10;99.90
20045;DHT22;10183;47.808;9.476;2022-07-05T05:55:48;16.00;99.90
20045;DHT22;10183;47.808;9.476;2022-07-05T05:58:18;16.00;99.90
20045;DHT22;10183;47.808;9.476;2022-07-05T06:00:47;16.10;99.90
20045;DHT22;10183;47.808;9.476;2022-07-05T06:03:19;16.30;99.90
20045;DHT22;10183;47.808;9.476;2022-07-05T06:05:46;16.30;99.90
20045;DHT22;10183;47.808;9.476;2022-07-05T06:08:12;16.50;99.90
20045;DHT22;10183;47.808;9.476;2022-07-05T06:10:39;16.50;99.90
20045;DHT22;10183;47.808;9.476;2022-07-05T06:13:10;16.40;99.90
20045;DHT22;10183;47.808;9.476;2022-07-05T06:15:37;16.60;99.90
20045;DHT22;10183;47.808;9.476;2022-07-05T06:18:04;16.60;99.90
20045;DHT22;10183;47.808;9.476;2022-07-05T06:20:32;16.60;99.90
20045;DHT22;10183;47.808;9.476;2022-07-05T06:23:00;16.70;99.90
20045;DHT22;10183;47.808;9.476;2022-07-05T06:25:27;17.00;99.90
20045;DHT22;10183;47.808;9.476;2022-07-05T06:27:58;17.10;99.90
20045;DHT22;10183;47.808;9.476;2022-07-05T06:30:27;16.90;99.90
20045;DHT22;10183;47.808;9.476;2022-07-05T06:32:54;16.90;99.90
20045;DHT22;10183;47.808;9.476;2022-07-05T06:35:21;16.90;99.90
20045;DHT22;10183;47.808;9.476;2022-07-05T06:37:52;17.00;99.90
20045;DHT22;10183;47.808;9.476;2022-07-05T06:40:29;17.10;99.90
20045;DHT22;10183;47.808;9.476;2022-07-05T06:42:58;17.30;99.90
20045;DHT22;10183;47.808;9.476;2022-07-05T06:45:25;17.10;99.90
20045;DHT22;10183;47.808;9.476;2022-07-05T06:47:59;17.00;99.90
20045;DHT22;10183;47.808;9.476;2022-07-05T06:50:27;17.00;99.90
20045;DHT22;10183;47.808;9.476;2022-07-05T06:52:54;17.10;99.90
20045;DHT22;10183;47.808;9.476;2022-07-05T06:55:21;17.00;99.90
20045;DHT22;10183;47.808;9.476;2022-07-05T06:57:48;16.90;99.90
20045;DHT22;10183;47.808;9.476;2022-07-05T07:00:14;17.00;99.90
20045;DHT22;10183;47.808;9.476;2022-07-05T07:02:41;17.00;99.90
20045;DHT22;10183;47.808;9.476;2022-07-05T07:05:08;17.20;99.90
20045;DHT22;10183;47.808;9.476;2022-07-05T07:07:34;17.20;99.90
20045;DHT22;10183;47.808;9.476;2022-07-05T07:10:19;17.30;99.90
20045;DHT22;10183;47.808;9.476;2022-07-05T07:12:45;17.50;99.90
20045;DHT22;10183;47.808;9.476;2022-07-05T07:15:11;17.60;99.90
20045;DHT22;10183;47.808;9.476;2022-07-05T07:17:37;17.70;99.90
20045;DHT22;10183;47.808;9.476;2022-07-05T07:20:04;17.90;99.90
20045;DHT22;10183;47.808;9.476;2022-07-05T07:22:30;17.80;99.90
20045;DHT22;10183;47.808;9.476;2022-07-05T07:24:56;17.90;99.90
20045;DHT22;10183;47.808;9.476;2022-07-05T07:27:22;18.30;99.90
20045;DHT22;10183;47.808;9.476;2022-07-05T07:29:48;18.00;99.90
20045;DHT22;10183;47.808;9.476;2022-07-05T07:32:14;18.00;99.90
20045;DHT22;10183;47.808;9.476;2022-07-05T07:34:41;17.70;99.90
20045;DHT22;10183;47.808;9.476;2022-07-05T07:37:07;17.50;99.90
20045;DHT22;10183;47.808;9.476;2022-07-05T07:39:34;17.50;99.90
20045;DHT22;10183;47.808;9.476;2022-07-05T07:42:01;17.60;99.90
20045;DHT22;10183;47.808;9.476;2022-07-05T07:44:27;18.00;99.90
20045;DHT22;10183;47.808;9.476;2022-07-05T07:46:53;18.10;99.90
20045;DHT22;10183;47.808;9.476;2022-07-05T07:49:19;18.10;99.90
20045;DHT22;10183;47.808;9.476;2022-07-05T07:51:46;18.50;99.90
20045;DHT22;10183;47.808;9.476;2022-07-05T07:54:12;18.80;99.90
20045;DHT22;10183;47.808;9.476;2022-07-05T07:56:38;19.20;99.90
20045;DHT22;10183;47.808;9.476;2022-07-05T07:59:05;19.30;99.90
20045;DHT22;10183;47.808;9.476;2022-07-05T08:01:31;19.70;99.90
20045;DHT22;10183;47.808;9.476;2022-07-05T08:03:57;19.80;99.90
20045;DHT22;10183;47.808;9.476;2022-07-05T08:06:23;19.80;99.90
20045;DHT22;10183;47.808;9.476;2022-07-05T08:08:50;20.10;99.90
20045;DHT22;10183;47.808;9.476;2022-07-05T08:11:16;20.00;99.90
20045;DHT22;10183;47.808;9.476;2022-07-05T08:13:42;20.30;99.90
20045;DHT22;10183;47.808;9.476;2022-07-05T08:16:10;19.50;99.90
20045;DHT22;10183;47.808;9.476;2022-07-05T08:18:37;19.20;99.90
20045;DHT22;10183;47.808;9.476;2022-07-05T08:21:22;19.30;99.90
20045;DHT22;10183;47.808;9.476;2022-07-05T08:23:58;19.40;99.90
20045;DHT22;10183;47.808;9.476;2022-07-05T08:26:28;19.30;99.90
20045;DHT22;10183;47.808;9.476;2022-07-05T08:28:56;19.80;99.90
20045;DHT22;10183;47.808;9.476;2022-07-05T08:31:25;20.40;99.90
20045;DHT22;10183;47.808;9.476;2022-07-05T08:33:51;20.90;99.90
20045;DHT22;10183;47.808;9.476;2022-07-05T08:36:18;20.90;99.90
20045;DHT22;10183;47.808;9.476;2022-07-05T08:38:44;21.10;99.90
20045;DHT22;10183;47.808;9.476;2022-07-05T08:41:11;20.30;99.90
20045;DHT22;10183;47.808;9.476;2022-07-05T08:43:41;20.40;99.90
20045;DHT22;10183;47.808;9.476;2022-07-05T08:46:08;20.00;99.90
20045;DHT22;10183;47.808;9.476;2022-07-05T08:48:41;20.00;99.90
20045;DHT22;10183;47.808;9.476;2022-07-05T08:51:15;19.90;99.90
20045;DHT22;10183;47.808;9.476;2022-07-05T08:53:48;20.20;99.90
20045;DHT22;10183;47.808;9.476;2022-07-05T08:56:15;20.40;99.90
20045;DHT22;10183;47.808;9.476;2022-07-05T08:58:41;20.90;99.90
20045;DHT22;10183;47.808;9.476;2022-07-05T09:01:09;21.20;99.90
20045;DHT22;10183;47.808;9.476;2022-07-05T09:06:08;20.70;99.90
20045;DHT22;10183;47.808;9.476;2022-07-05T09:08:36;20.80;99.90
20045;DHT22;10183;47.808;9.476;2022-07-05T09:11:11;21.00;99.90
20045;DHT22;10183;47.808;9.476;2022-07-05T09:13:39;21.00;99.90
20045;DHT22;10183;47.808;9.476;2022-07-05T09:16:06;21.50;99.90
20045;DHT22;10183;47.808;9.476;2022-07-05T09:18:43;21.30;99.90
20045;DHT22;10183;47.808;9.476;2022-07-05T09:21:26;21.30;99.90
20045;DHT22;10183;47.808;9.476;2022-07-05T09:23:57;21.60;99.90
20045;DHT22;10183;47.808;9.476;2022-07-05T09:26:46;21.80;99.90
20045;DHT22;10183;47.808;9.476;2022-07-05T09:29:17;21.30;99.90
20045;DHT22;10183;47.808;9.476;2022-07-05T09:31:48;21.10;99.90
20045;DHT22;10183;47.808;9.476;2022-07-05T09:34:16;21.20;99.90
20045;DHT22;10183;47.808;9.476;2022-07-05T09:39:17;21.20;99.90
20045;DHT22;10183;47.808;9.476;2022-07-05T09:41:44;21.10;99.90
20045;DHT22;10183;47.808;9.476;2022-07-05T09:44:10;20.90;99.90
20045;DHT22;10183;47.808;9.476;2022-07-05T09:46:36;20.80;99.90
20045;DHT22;10183;47.808;9.476;2022-07-05T09:49:04;20.30;99.90
20045;DHT22;10183;47.808;9.476;2022-07-05T09:51:46;20.00;99.90
20045;DHT22;10183;47.808;9.476;2022-07-05T09:54:12;20.00;99.90
20045;DHT22;10183;47.808;9.476;2022-07-05T09:56:46;20.60;99.90
20045;DHT22;10183;47.808;9.476;2022-07-05T09:59:15;21.30;99.90
20045;DHT22;10183;47.808;9.476;2022-07-05T10:01:41;21.50;99.90
20045;DHT22;10183;47.808;9.476;2022-07-05T10:04:08;21.40;99.90
20045;DHT22;10183;47.808;9.476;2022-07-05T10:06:34;20.90;99.90
20045;DHT22;10183;47.808;9.476;2022-07-05T10:09:01;20.80;99.90
20045;DHT22;10183;47.808;9.476;2022-07-05T10:11:27;21.30;99.90
20045;DHT22;10183;47.808;9.476;2022-07-05T10:13:54;21.90;99.90
20045;DHT22;10183;47.808;9.476;2022-07-05T10:16:21;22.10;99.90
20045;DHT22;10183;47.808;9.476;2022-07-05T10:18:51;22.60;99.90
20045;DHT22;10183;47.808;9.476;2022-07-05T10:21:18;22.60;99.90
20045;DHT22;10183;47.808;9.476;2022-07-05T10:23:47;22.10;99.90
20045;DHT22;10183;47.808;9.476;2022-07-05T10:26:15;22.00;99.90
20045;DHT22;10183;47.808;9.476;2022-07-05T10:28:46;21.50;99.90
20045;DHT22;10183;47.808;9.476;2022-07-05T10:31:14;21.60;99.90
20045;DHT22;10183;47.808;9.476;2022-07-05T10:33:41;21.40;99.90
20045;DHT22;10183;47.808;9.476;2022-07-05T10:36:09;21.70;99.90
20045;DHT22;10183;47.808;9.476;2022-07-05T10:38:39;22.40;99.90
20045;DHT22;10183;47.808;9.476;2022-07-05T10:41:09;22.30;99.90
20045;DHT22;10183;47.808;9.476;2022-07-05T10:43:36;21.80;99.90
20045;DHT22;10183;47.808;9.476;2022-07-05T10:46:02;21.70;99.90
20045;DHT22;10183;47.808;9.476;2022-07-05T10:48:33;21.80;99.90
20045;DHT22;10183;47.808;9.476;2022-07-05T10:58:46;22.80;99.90
20045;DHT22;10183;47.808;9.476;2022-07-05T11:03:41;22.40;99.90
20045;DHT22;10183;47.808;9.476;2022-07-05T11:06:08;22.40;99.90
20045;DHT22;10183;47.808;9.476;2022-07-05T11:11:27;22.60;99.90
20045;DHT22;10183;47.808;9.476;2022-07-05T11:13:54;23.20;99.90
20045;DHT22;10183;47.808;9.476;2022-07-05T11:16:24;23.60;99.90
20045;DHT22;10183;47.808;9.476;2022-07-05T11:19:10;22.90;99.90
20045;DHT22;10183;47.808;9.476;2022-07-05T11:21:58;23.20;99.90
20045;DHT22;10183;47.808;9.476;2022-07-05T11:24:33;22.60;99.90
20045;DHT22;10183;47.808;9.476;2022-07-05T11:27:01;22.60;99.90
20045;DHT22;10183;47.808;9.476;2022-07-05T11:32:16;23.00;99.90
20045;DHT22;10183;47.808;9.476;2022-07-05T11:34:44;23.10;99.90
20045;DHT22;10183;47.808;9.476;2022-07-05T11:39:40;22.60;99.90
20045;DHT22;10183;47.808;9.476;2022-07-05T11:42:08;23.50;99.90
20045;DHT22;10183;47.808;9.476;2022-07-05T11:44:36;24.90;99.90
20045;DHT22;10183;47.808;9.476;2022-07-05T11:47:03;25.50;99.90
20045;DHT22;10183;47.808;9.476;2022-07-05T11:49:30;25.60;99.90
20045;DHT22;10183;47.808;9.476;2022-07-05T11:52:01;24.20;99.90
20045;DHT22;10183;47.808;9.476;2022-07-05T11:54:33;23.50;99.90
20045;DHT22;10183;47.808;9.476;2022-07-05T11:57:00;23.10;99.90
20045;DHT22;10183;47.808;9.476;2022-07-05T11:59:26;23.50;99.90
20045;DHT22;10183;47.808;9.476;2022-07-05T12:01:54;23.90;99.90
20045;DHT22;10183;47.808;9.476;2022-07-05T12:04:28;24.40;99.90
20045;DHT22;10183;47.808;9.476;2022-07-05T12:06:55;24.90;99.90
20045;DHT22;10183;47.808;9.476;2022-07-05T12:09:23;24.40;99.90
20045;DHT22;10183;47.808;9.476;2022-07-05T12:11:54;23.90;99.90
20045;DHT22;10183;47.808;9.476;2022-07-05T12:14:49;24.30;99.90
20045;DHT22;10183;47.808;9.476;2022-07-05T12:17:20;24.70;99.90
20045;DHT22;10183;47.808;9.476;2022-07-05T12:19:47;25.20;99.90
20045;DHT22;10183;47.808;9.476;2022-07-05T12:22:13;25.30;99.90
20045;DHT22;10183;47.808;9.476;2022-07-05T12:24:40;25.60;99.90
20045;DHT22;10183;47.808;9.476;2022-07-05T12:27:09;25.50;99.90
20045;DHT22;10183;47.808;9.476;2022-07-05T12:29:36;25.60;99.90
20045;DHT22;10183;47.808;9.476;2022-07-05T12:32:04;24.90;99.90
20045;DHT22;10183;47.808;9.476;2022-07-05T12:34:32;25.20;99.90
20045;DHT22;10183;47.808;9.476;2022-07-05T12:36:58;25.40;99.90
20045;DHT22;10183;47.808;9.476;2022-07-05T12:39:24;25.10;99.90
20045;DHT22;10183;47.808;9.476;2022-07-05T12:41:51;25.10;99.90
20045;DHT22;10183;47.808;9.476;2022-07-05T12:44:20;25.30;99.90
20045;DHT22;10183;47.808;9.476;2022-07-05T12:46:47;25.50;99.90
20045;DHT22;10183;47.808;9.476;2022-07-05T12:49:18;24.40;99.90
20045;DHT22;10183;47.808;9.476;2022-07-05T12:51:45;24.20;99.90
20045;DHT22;10183;47.808;9.476;2022-07-05T12:54:23;25.10;99.90
20045;DHT22;10183;47.808;9.476;2022-07-05T12:57:08;26.10;99.90
20045;DHT22;10183;47.808;9.476;2022-07-05T13:00:06;25.70;99.90
20045;DHT22;10183;47.808;9.476;2022-07-05T13:02:35;25.00;99.90
20045;DHT22;10183;47.808;9.476;2022-07-05T13:05:01;25.20;99.90
20045;DHT22;10183;47.808;9.476;2022-07-05T13:07:27;25.50;99.90
20045;DHT22;10183;47.808;9.476;2022-07-05T13:09:53;26.30;99.90
20045;DHT22;10183;47.808;9.476;2022-07-05T13:12:20;26.00;99.90
20045;DHT22;10183;47.808;9.476;2022-07-05T13:14:49;26.50;99.90
20045;DHT22;10183;47.808;9.476;2022-07-05T13:17:18;26.00;99.90
20045;DHT22;10183;47.808;9.476;2022-07-05T13:19:46;27.50;99.90
20045;DHT22;10183;47.808;9.476;2022-07-05T13:22:13;29.20;99.90
20045;DHT22;10183;47.808;9.476;2022-07-05T13:24:40;28.30;99.90
20045;DHT22;10183;47.808;9.476;2022-07-05T13:27:07;25.90;99.90
20045;DHT22;10183;47.808;9.476;2022-07-05T13:29:34;27.40;99.90
20045;DHT22;10183;47.808;9.476;2022-07-05T13:32:00;28.60;99.90
20045;DHT22;10183;47.808;9.476;2022-07-05T13:34:27;29.00;99.90
20045;DHT22;10183;47.808;9.476;2022-07-05T13:36:56;27.70;99.90
20045;DHT22;10183;47.808;9.476;2022-07-05T13:39:23;27.70;99.90
20045;DHT22;10183;47.808;9.476;2022-07-05T13:41:52;27.40;99.90
20045;DHT22;10183;47.808;9.476;2022-07-05T13:44:19;27.40;99.90
20045;DHT22;10183;47.808;9.476;2022-07-05T13:46:46;27.20;99.90
20045;DHT22;10183;47.808;9.476;2022-07-05T13:49:12;26.80;99.90
20045;DHT22;10183;47.808;9.476;2022-07-05T13:51:38;26.40;99.90
20045;DHT22;10183;47.808;9.476;2022-07-05T13:54:04;24.10;99.90
20045;DHT22;10183;47.808;9.476;2022-07-05T13:56:31;23.20;99.90
20045;DHT22;10183;47.808;9.476;2022-07-05T13:59:02;22.40;99.90
20045;DHT22;10183;47.808;9.476;2022-07-05T14:01:28;24.00;99.90
20045;DHT22;10183;47.808;9.476;2022-07-05T14:03:57;25.20;99.90
20045;DHT22;10183;47.808;9.476;2022-07-05T14:06:29;25.70;99.90
20045;DHT22;10183;47.808;9.476;2022-07-05T14:08:55;26.50;99.90
20045;DHT22;10183;47.808;9.476;2022-07-05T14:11:22;25.20;99.90
20045;DHT22;10183;47.808;9.476;2022-07-05T14:13:53;24.40;99.90
20045;DHT22;10183;47.808;9.476;2022-07-05T14:16:19;24.60;99.90
20045;DHT22;10183;47.808;9.476;2022-07-05T14:18:46;24.40;99.90
20045;DHT22;10183;47.808;9.476;2022-07-05T14:21:13;24.60;99.90
20045;DHT22;10183;47.808;9.476;2022-07-05T14:23:42;25.50;99.90
20045;DHT22;10183;47.808;9.476;2022-07-05T14:26:08;25.20;99.90
20045;DHT22;10183;47.808;9.476;2022-07-05T14:28:37;24.60;99.90
20045;DHT22;10183;47.808;9.476;2022-07-05T14:31:03;25.10;99.90
20045;DHT22;10183;47.808;9.476;2022-07-05T14:33:29;26.20;99.90
20045;DHT22;10183;47.808;9.476;2022-07-05T14:35:55;26.90;99.90
20045;DHT22;10183;47.808;9.476;2022-07-05T14:38:21;28.00;99.90
20045;DHT22;10183;47.808;9.476;2022-07-05T14:40:48;29.30;99.90
20045;DHT22;10183;47.808;9.476;2022-07-05T14:43:14;28.20;99.90
20045;DHT22;10183;47.808;9.476;2022-07-05T14:45:41;27.70;99.90
20045;DHT22;10183;47.808;9.476;2022-07-05T14:48:07;26.50;99.90
20045;DHT22;10183;47.808;9.476;2022-07-05T14:50:33;26.90;99.90
20045;DHT22;10183;47.808;9.476;2022-07-05T14:53:00;25.80;99.90
20045;DHT22;10183;47.808;9.476;2022-07-05T14:55:36;25.50;99.90
20045;DHT22;10183;47.808;9.476;2022-07-05T14:58:02;25.10;99.90
20045;DHT22;10183;47.808;9.476;2022-07-05T15:00:29;24.60;99.90
20045;DHT22;10183;47.808;9.476;2022-07-05T15:02:55;24.80;99.90
20045;DHT22;10183;47.808;9.476;2022-07-05T15:05:21;25.50;99.90
20045;DHT22;10183;47.808;9.476;2022-07-05T15:07:48;25.90;99.90
20045;DHT22;10183;47.808;9.476;2022-07-05T15:10:14;26.80;99.90
20045;DHT22;10183;47.808;9.476;2022-07-05T15:12:40;27.30;99.90
20045;DHT22;10183;47.808;9.476;2022-07-05T15:15:07;26.80;99.90
20045;DHT22;10183;47.808;9.476;2022-07-05T15:17:34;26.90;99.90
20045;DHT22;10183;47.808;9.476;2022-07-05T15:20:00;26.70;99.90
20045;DHT22;10183;47.808;9.476;2022-07-05T15:22:27;26.90;99.90
20045;DHT22;10183;47.808;9.476;2022-07-05T15:24:54;25.80;99.90
20045;DHT22;10183;47.808;9.476;2022-07-05T15:27:21;24.90;99.90
20045;DHT22;10183;47.808;9.476;2022-07-05T15:29:47;24.30;99.90
20045;DHT22;10183;47.808;9.476;2022-07-05T15:32:14;23.80;99.90
20045;DHT22;10183;47.808;9.476;2022-07-05T15:34:40;23.60;99.90
20045;DHT22;10183;47.808;9.476;2022-07-05T15:37:07;23.30;99.90
20045;DHT22;10183;47.808;9.476;2022-07-05T15:39:33;23.40;99.90
20045;DHT22;10183;47.808;9.476;2022-07-05T15:42:01;25.10;99.90
20045;DHT22;10183;47.808;9.476;2022-07-05T15:44:28;26.60;99.90
20045;DHT22;10183;47.808;9.476;2022-07-05T15:46:54;27.70;99.90
20045;DHT22;10183;47.808;9.476;2022-07-05T15:49:30;27.80;99.90
20045;DHT22;10183;47.808;9.476;2022-07-05T15:51:58;28.90;99.60
20045;DHT22;10183;47.808;9.476;2022-07-05T15:54:25;28.50;97.70
20045;DHT22;10183;47.808;9.476;2022-07-05T15:56:51;27.20;99.90